F/V J. Louis Vincent — FQBL — position and weather

sailwx.info

Track history (hours):
 
Tides and Currents Weather Stations Pressure Air Temp Water Temp Dewpoint Dewpoint Depression Visibility Wind Speed Wind Dir Waves Ship Positions

F/V J. Louis Vincent

Last reported at 2016-Jun-24 02:29 UTC. Time now 2016-Jun-29 03:50 UTC.
Position N 43°11' E 003°59'.

Length 29 m; draft 3.5 m.

Type: Fishing. MMSI: 227146600.

Date/timePositionNaut miles runAvg speedWind from/ knotsBaromVisibWave heightAir tempDewpointWater temp
2016-Jun-24 02:29N 43°11' E 003°59'18 2.0
2016-Jun-23 17:20N 43°24' E 003°42'37 6.3
2016-Jun-23 11:22N 43°01' E 004°22'6 7.8
2016-Jun-23 10:33N 42°59' E 004°30'12 3.8
2016-Jun-23 07:22N 42°58' E 004°47'8 4.3
2016-Jun-23 05:34N 42°59' E 004°36'5 5.2
2016-Jun-23 04:33N 43°01' E 004°30'19 0.8
2016-Jun-22 04:28N 43°12' E 004°08'9 4.5
2016-Jun-22 02:21N 43°13' E 003°56'12 9.4
2016-Jun-22 01:06N 43°22' E 003°44'  
2016-Jun-17 16:16N 43°24' E 003°43'  
2016-Jun-15 08:20N 43°04' E 004°29'  
Track history (hours):
 
Tides and Currents Weather Stations Pressure Air Temp Water Temp Dewpoint Dewpoint Depression Visibility Wind Speed Wind Dir Waves Ship Positions

F/V J. Louis Vincent

Last reported at 2016-Jun-24 02:29 UTC. Time now 2016-Jun-29 03:50 UTC.
Position N 43°11' E 003°59'.

Length 29 m; draft 3.5 m.

Type: Fishing. MMSI: 227146600.

Date/timePositionNaut miles runAvg speedWind from/ knotsBaromVisibWave heightAir tempDewpointWater temp
2016-Jun-24 02:29N 43°11' E 003°59'18 2.0
2016-Jun-23 17:20N 43°24' E 003°42'37 6.3
2016-Jun-23 11:22N 43°01' E 004°22'6 7.8
2016-Jun-23 10:33N 42°59' E 004°30'12 3.8
2016-Jun-23 07:22N 42°58' E 004°47'8 4.3
2016-Jun-23 05:34N 42°59' E 004°36'5 5.2
2016-Jun-23 04:33N 43°01' E 004°30'19 0.8
2016-Jun-22 04:28N 43°12' E 004°08'9 4.5
2016-Jun-22 02:21N 43°13' E 003°56'12 9.4
2016-Jun-22 01:06N 43°22' E 003°44'  
2016-Jun-17 16:16N 43°24' E 003°43'  
2016-Jun-15 08:20N 43°04' E 004°29'  

Dump ship's entire track history